createdAt,value
2022-12-01T00:01:21.523Z,8.60
2022-12-01T00:03:49.048Z,8.60
2022-12-01T00:06:20.879Z,8.60
2022-12-01T00:09:09.375Z,8.60
2022-12-01T00:11:37.795Z,8.60
2022-12-01T00:14:05.530Z,8.60
2022-12-01T00:16:33.622Z,8.70
2022-12-01T00:19:00.895Z,8.70
2022-12-01T00:21:28.507Z,8.60
2022-12-01T00:23:57.701Z,8.80
2022-12-01T00:26:26.698Z,8.80
2022-12-01T00:28:56.064Z,8.80
2022-12-01T00:31:23.605Z,8.80
2022-12-01T00:33:50.791Z,8.80
2022-12-01T00:36:18.109Z,8.90
2022-12-01T00:38:45.179Z,8.80
2022-12-01T00:41:12.258Z,8.80
2022-12-01T00:43:39.885Z,8.80
2022-12-01T00:46:06.993Z,8.90
2022-12-01T00:48:34.074Z,8.90
2022-12-01T00:51:01.469Z,8.80
2022-12-01T00:53:28.482Z,8.80
2022-12-01T00:55:55.550Z,8.70
2022-12-01T00:58:23.730Z,8.60
2022-12-01T01:00:58.288Z,8.60
2022-12-01T01:03:26.406Z,8.60
2022-12-01T01:05:53.598Z,8.60
2022-12-01T01:08:20.835Z,8.60
2022-12-01T01:10:49.233Z,8.60
2022-12-01T01:13:16.428Z,8.50
2022-12-01T01:15:43.480Z,8.50
2022-12-01T01:18:12.083Z,8.40
2022-12-01T01:20:39.246Z,8.40
2022-12-01T01:23:06.190Z,8.40
2022-12-01T01:25:34.063Z,8.40
2022-12-01T01:28:01.060Z,8.50
2022-12-01T01:30:28.637Z,8.50
2022-12-01T01:32:55.645Z,8.50
2022-12-01T01:35:22.626Z,8.50
2022-12-01T01:37:51.007Z,8.50
2022-12-01T01:40:18.620Z,8.40
2022-12-01T01:42:45.670Z,8.50
2022-12-01T01:45:28.699Z,8.60
2022-12-01T01:47:59.071Z,8.50
2022-12-01T01:50:29.156Z,8.50
2022-12-01T01:53:02.946Z,8.50
2022-12-01T01:55:32.016Z,8.40
2022-12-01T01:58:00.108Z,8.40
2022-12-01T02:00:27.163Z,8.40
2022-12-01T02:02:54.458Z,8.40
2022-12-01T02:05:24.989Z,8.40
2022-12-01T02:07:55.188Z,8.40
2022-12-01T02:10:29.782Z,8.20
2022-12-01T02:13:27.379Z,8.30
2022-12-01T02:16:15.023Z,8.20
2022-12-01T02:19:00.103Z,8.10
2022-12-01T02:22:14.532Z,8.00
2022-12-01T02:25:02.272Z,8.00
2022-12-01T02:27:37.852Z,8.00
2022-12-01T02:30:08.022Z,7.90
2022-12-01T02:32:56.678Z,7.90
2022-12-01T02:35:29.420Z,8.00
2022-12-01T02:38:24.243Z,8.00
2022-12-01T02:41:20.501Z,7.90
2022-12-01T02:43:54.841Z,7.90
2022-12-01T02:46:34.136Z,7.80
2022-12-01T02:49:11.478Z,7.70
2022-12-01T02:51:42.160Z,7.70
2022-12-01T02:54:09.541Z,7.60
2022-12-01T02:56:36.471Z,7.60
2022-12-01T02:59:11.134Z,7.60
2022-12-01T03:01:43.580Z,7.60
2022-12-01T03:04:25.521Z,7.50
2022-12-01T03:07:11.028Z,7.60
2022-12-01T03:09:44.222Z,7.50
2022-12-01T03:12:40.002Z,7.50
2022-12-01T03:15:19.923Z,7.50
2022-12-01T03:18:34.480Z,7.40
2022-12-01T03:21:24.491Z,7.40
2022-12-01T03:23:56.558Z,7.30
2022-12-01T03:26:25.723Z,7.30
2022-12-01T03:29:00.358Z,7.40
2022-12-01T03:31:33.058Z,7.40
2022-12-01T03:34:09.895Z,7.40
2022-12-01T03:36:50.193Z,7.40
2022-12-01T03:39:24.126Z,7.40
2022-12-01T03:41:57.087Z,7.40
2022-12-01T03:44:31.006Z,7.30
2022-12-01T03:47:06.418Z,7.30
2022-12-01T03:49:34.319Z,7.20
2022-12-01T03:52:20.082Z,7.20
2022-12-01T03:55:16.749Z,7.20
2022-12-01T03:58:06.000Z,7.30
2022-12-01T04:00:33.430Z,7.30
2022-12-01T04:03:05.756Z,7.30
2022-12-01T04:05:34.060Z,7.30
2022-12-01T04:08:01.698Z,7.40
2022-12-01T04:10:28.811Z,7.30
2022-12-01T04:12:59.570Z,7.30
2022-12-01T04:15:27.413Z,7.40
2022-12-01T04:17:54.726Z,7.40
2022-12-01T04:20:22.258Z,7.40
2022-12-01T04:22:49.546Z,7.40
2022-12-01T04:25:16.683Z,7.40
2022-12-01T04:27:43.602Z,7.40
2022-12-01T04:30:11.408Z,7.60
2022-12-01T04:32:39.951Z,7.70
2022-12-01T04:35:08.830Z,7.80
2022-12-01T04:37:36.161Z,7.80
2022-12-01T04:40:03.572Z,7.60
2022-12-01T04:42:30.530Z,7.50
2022-12-01T04:44:57.954Z,7.40
2022-12-01T04:47:24.919Z,7.30
2022-12-01T04:49:52.443Z,7.30
2022-12-01T04:52:19.384Z,7.30
2022-12-01T04:54:46.346Z,7.30
2022-12-01T04:57:13.402Z,7.20
2022-12-01T04:59:40.394Z,7.30
2022-12-01T05:02:07.979Z,7.30
2022-12-01T05:04:38.727Z,7.20
2022-12-01T05:07:06.245Z,7.30
2022-12-01T05:09:33.259Z,7.30
2022-12-01T05:12:00.321Z,7.30
2022-12-01T05:14:27.394Z,7.40
2022-12-01T05:16:55.217Z,7.40
2022-12-01T05:19:40.684Z,7.40
2022-12-01T05:22:07.640Z,7.30
2022-12-01T05:24:34.613Z,7.30
2022-12-01T05:27:01.518Z,7.30
2022-12-01T05:29:28.506Z,7.40
2022-12-01T05:31:55.494Z,7.40
2022-12-01T05:34:22.611Z,7.40
2022-12-01T05:36:49.521Z,7.40
2022-12-01T05:39:16.634Z,7.40
2022-12-01T05:41:43.561Z,7.40
2022-12-01T05:44:10.573Z,7.30
2022-12-01T05:46:37.492Z,7.30
2022-12-01T05:49:04.522Z,7.20
2022-12-01T05:51:31.519Z,7.20
2022-12-01T05:54:01.332Z,7.30
2022-12-01T05:56:28.285Z,7.20
2022-12-01T05:58:55.322Z,7.20
2022-12-01T06:01:22.374Z,7.30
2022-12-01T06:03:49.465Z,7.30
2022-12-01T06:06:16.454Z,7.40
2022-12-01T06:08:43.493Z,7.40
2022-12-01T06:11:10.435Z,7.30
2022-12-01T06:13:37.545Z,7.20
2022-12-01T06:16:06.427Z,7.00
2022-12-01T06:18:38.303Z,6.90
2022-12-01T06:21:06.700Z,6.90
2022-12-01T06:23:33.801Z,6.90
2022-12-01T06:26:00.857Z,6.90
2022-12-01T06:28:27.859Z,6.90
2022-12-01T06:31:01.052Z,7.00
2022-12-01T06:33:30.205Z,7.00
2022-12-01T06:36:04.995Z,7.20
2022-12-01T06:38:33.787Z,7.20
2022-12-01T06:41:01.502Z,7.20
2022-12-01T06:43:29.150Z,7.30
2022-12-01T06:46:01.756Z,7.30
2022-12-01T06:48:29.911Z,7.20
2022-12-01T06:51:01.071Z,7.10
2022-12-01T06:53:29.376Z,7.10
2022-12-01T06:56:03.593Z,7.20
2022-12-01T06:58:31.982Z,7.40
2022-12-01T07:00:59.378Z,7.50
2022-12-01T07:03:27.327Z,7.60
2022-12-01T07:05:59.996Z,7.70
2022-12-01T07:08:31.713Z,7.70
2022-12-01T07:11:01.766Z,7.70
2022-12-01T07:13:33.481Z,7.60
2022-12-01T07:16:04.911Z,7.40
2022-12-01T07:18:33.098Z,7.40
2022-12-01T07:21:04.508Z,7.30
2022-12-01T07:23:31.936Z,7.30
2022-12-01T07:26:18.468Z,7.20
2022-12-01T07:28:45.791Z,7.40
2022-12-01T07:31:18.405Z,7.50
2022-12-01T07:33:46.055Z,7.70
2022-12-01T07:36:14.438Z,7.70
2022-12-01T07:38:42.251Z,7.70
2022-12-01T07:41:11.527Z,7.80
2022-12-01T07:43:38.682Z,7.90
2022-12-01T07:46:20.348Z,7.90
2022-12-01T07:48:49.664Z,7.80
2022-12-01T07:51:17.324Z,7.90
2022-12-01T07:53:49.368Z,7.90
2022-12-01T07:56:17.083Z,7.80
2022-12-01T07:58:44.432Z,7.80
2022-12-01T08:01:22.920Z,7.70
2022-12-01T08:03:51.805Z,7.60
2022-12-01T08:06:19.567Z,7.70
2022-12-01T08:08:47.307Z,7.80
2022-12-01T08:11:20.214Z,7.70
2022-12-01T08:13:47.535Z,7.70
2022-12-01T08:16:18.675Z,7.80
2022-12-01T08:18:46.045Z,7.70
2022-12-01T08:21:15.982Z,7.60
2022-12-01T08:23:44.024Z,7.60
2022-12-01T08:26:16.909Z,7.60
2022-12-01T08:28:44.770Z,7.60
2022-12-01T08:31:24.565Z,7.60
2022-12-01T08:33:52.442Z,7.80
2022-12-01T08:36:21.030Z,7.70
2022-12-01T08:38:50.266Z,7.60
2022-12-01T08:41:18.022Z,7.70
2022-12-01T08:44:01.631Z,7.80
2022-12-01T08:46:32.641Z,8.00
2022-12-01T08:49:00.166Z,8.10
2022-12-01T08:51:27.567Z,8.20
2022-12-01T08:53:56.618Z,8.10
2022-12-01T08:56:32.800Z,8.00
2022-12-01T08:59:00.358Z,7.90
2022-12-01T09:01:27.572Z,7.80
2022-12-01T09:04:10.492Z,7.80
2022-12-01T09:06:45.557Z,7.90
2022-12-01T09:09:16.479Z,7.80
2022-12-01T09:11:44.040Z,7.70
2022-12-01T09:14:12.468Z,7.70
2022-12-01T09:16:40.878Z,7.60
2022-12-01T09:19:08.145Z,7.60
2022-12-01T09:21:37.397Z,7.60
2022-12-01T09:24:06.149Z,7.60
2022-12-01T09:26:33.907Z,7.50
2022-12-01T09:29:04.452Z,7.50
2022-12-01T09:31:31.505Z,7.40
2022-12-01T09:34:01.370Z,7.30
2022-12-01T09:36:30.480Z,7.30
2022-12-01T09:38:58.177Z,7.30
2022-12-01T09:41:44.452Z,7.40
2022-12-01T09:44:14.489Z,7.30
2022-12-01T09:46:49.187Z,7.30
2022-12-01T09:49:24.364Z,7.30
2022-12-01T09:51:53.663Z,7.30
2022-12-01T09:54:21.105Z,7.40
2022-12-01T09:56:53.048Z,7.30
2022-12-01T09:59:23.903Z,7.30
2022-12-01T10:02:02.848Z,7.30
2022-12-01T10:04:44.234Z,7.30
2022-12-01T10:07:31.843Z,7.50
2022-12-01T10:10:26.924Z,7.40
2022-12-01T10:12:54.500Z,7.40
2022-12-01T10:15:27.732Z,7.40
2022-12-01T10:18:18.011Z,7.40
2022-12-01T10:20:54.476Z,7.30
2022-12-01T10:23:42.579Z,7.40
2022-12-01T10:26:28.763Z,7.30
2022-12-01T10:29:01.447Z,7.20
2022-12-01T10:31:54.256Z,7.40
2022-12-01T10:34:28.611Z,7.60
2022-12-01T10:36:56.926Z,7.60
2022-12-01T10:39:34.083Z,7.60
2022-12-01T10:42:10.608Z,7.60
2022-12-01T10:44:38.159Z,7.50
2022-12-01T10:47:17.974Z,7.60
2022-12-01T10:49:45.134Z,7.60
2022-12-01T10:52:41.837Z,7.50
2022-12-01T10:55:23.974Z,7.50
2022-12-01T10:57:52.513Z,7.40
2022-12-01T11:00:57.434Z,7.40
2022-12-01T11:03:22.045Z,7.40
2022-12-01T11:05:59.782Z,7.50
2022-12-01T11:08:44.698Z,7.50
2022-12-01T11:11:31.893Z,7.50
2022-12-01T11:14:02.034Z,7.60
2022-12-01T11:16:36.524Z,7.60
2022-12-01T11:19:27.796Z,7.60
2022-12-01T11:22:01.402Z,7.60
2022-12-01T11:24:44.966Z,7.50
2022-12-01T11:27:18.540Z,7.50
2022-12-01T11:29:49.301Z,7.50
2022-12-01T11:32:22.742Z,7.60
2022-12-01T11:34:54.002Z,7.60
2022-12-01T11:37:24.847Z,7.50
2022-12-01T11:39:53.020Z,7.40
2022-12-01T11:42:25.876Z,7.30
2022-12-01T11:44:54.825Z,7.30
2022-12-01T11:47:26.837Z,7.40
2022-12-01T11:50:23.920Z,7.30
2022-12-01T11:52:51.077Z,7.40
2022-12-01T11:55:18.382Z,7.40
2022-12-01T11:57:49.864Z,7.40
2022-12-01T12:00:20.124Z,7.50
2022-12-01T12:03:14.626Z,7.40
2022-12-01T12:06:39.423Z,7.40
2022-12-01T12:09:09.024Z,7.50
2022-12-01T12:11:44.554Z,7.40
2022-12-01T12:14:32.534Z,7.30
2022-12-01T12:17:22.200Z,7.40
2022-12-01T12:20:11.511Z,7.30
2022-12-01T12:23:16.483Z,7.50
2022-12-01T12:25:55.368Z,7.50
2022-12-01T12:29:13.820Z,7.50
2022-12-01T12:32:06.982Z,7.50
2022-12-01T12:34:50.427Z,7.50
2022-12-01T12:37:42.099Z,7.60
2022-12-01T12:40:26.719Z,7.50
2022-12-01T12:43:05.843Z,7.40
2022-12-01T12:45:54.499Z,7.40
2022-12-01T12:49:19.209Z,7.50
2022-12-01T12:52:12.772Z,7.40
2022-12-01T12:55:06.170Z,7.40
2022-12-01T12:57:43.677Z,7.50
2022-12-01T13:00:23.660Z,7.60
2022-12-01T13:03:04.884Z,7.70
2022-12-01T13:06:01.516Z,7.70
2022-12-01T13:08:59.346Z,7.60
2022-12-01T13:11:35.281Z,7.70
2022-12-01T13:14:30.967Z,7.80
2022-12-01T13:17:05.591Z,7.80
2022-12-01T13:19:36.839Z,7.70
2022-12-01T13:22:07.273Z,7.60
2022-12-01T13:24:34.729Z,7.80
2022-12-01T13:27:10.975Z,7.80
2022-12-01T13:29:44.328Z,7.90
2022-12-01T13:32:28.600Z,7.70
2022-12-01T13:34:56.501Z,7.60
2022-12-01T13:37:41.952Z,7.50
2022-12-01T13:40:30.467Z,7.60
2022-12-01T13:43:10.767Z,7.50
2022-12-01T13:45:40.079Z,7.40
2022-12-01T13:48:30.124Z,7.30
2022-12-01T13:51:02.582Z,7.40
2022-12-01T13:53:31.141Z,7.40
2022-12-01T13:56:18.265Z,7.30
2022-12-01T13:58:54.094Z,7.30
2022-12-01T14:01:21.723Z,7.40
2022-12-01T14:03:56.799Z,7.40
2022-12-01T14:06:31.445Z,7.40
2022-12-01T14:09:14.987Z,7.30
2022-12-01T14:11:56.221Z,7.30
2022-12-01T14:14:26.444Z,7.20
2022-12-01T14:16:57.019Z,7.10
2022-12-01T14:19:37.377Z,7.20
2022-12-01T14:22:27.775Z,7.30
2022-12-01T14:24:56.036Z,7.30
2022-12-01T14:27:40.778Z,7.20
2022-12-01T14:30:42.388Z,7.30
2022-12-01T14:33:40.056Z,7.40
2022-12-01T14:36:08.200Z,7.30
2022-12-01T14:38:35.561Z,7.30
2022-12-01T14:41:09.996Z,7.40
2022-12-01T14:44:00.077Z,7.20
2022-12-01T14:46:29.671Z,7.10
2022-12-01T14:48:58.805Z,7.10
2022-12-01T14:51:33.047Z,7.10
2022-12-01T14:54:04.258Z,7.00
2022-12-01T14:56:33.379Z,6.90
2022-12-01T14:59:13.661Z,7.00
2022-12-01T15:01:41.587Z,7.00
2022-12-01T15:04:08.663Z,6.90
2022-12-01T15:06:37.655Z,6.90
2022-12-01T15:12:03.746Z,7.00
2022-12-01T15:14:34.706Z,7.00
2022-12-01T15:17:05.222Z,7.00
2022-12-01T15:19:35.369Z,7.10
2022-12-01T15:22:14.974Z,7.20
2022-12-01T15:24:43.121Z,7.30
2022-12-01T15:27:36.607Z,7.30
2022-12-01T15:30:05.480Z,7.30
2022-12-01T15:32:37.970Z,7.30
2022-12-01T15:35:07.118Z,7.40
2022-12-01T15:37:43.320Z,7.50
2022-12-01T15:43:14.522Z,7.20
2022-12-01T15:45:55.553Z,7.20
2022-12-01T15:48:41.697Z,7.20
2022-12-01T15:51:19.075Z,7.20
2022-12-01T15:53:54.098Z,7.20
2022-12-01T15:56:31.576Z,7.20
2022-12-01T15:59:09.922Z,7.30
2022-12-01T16:01:37.703Z,7.20
2022-12-01T16:04:16.318Z,7.10
2022-12-01T16:06:51.590Z,7.10
2022-12-01T16:09:23.675Z,7.10
2022-12-01T16:12:09.507Z,7.00
2022-12-01T16:14:37.260Z,7.00
2022-12-01T16:17:08.574Z,6.90
2022-12-01T16:19:36.303Z,6.80
2022-12-01T16:22:12.142Z,6.80
2022-12-01T16:24:55.174Z,6.70
2022-12-01T16:27:30.295Z,6.70
2022-12-01T16:30:06.387Z,6.80
2022-12-01T16:32:39.397Z,6.70
2022-12-01T16:35:27.466Z,6.70
2022-12-01T16:37:55.319Z,6.60
2022-12-01T16:40:22.641Z,6.50
2022-12-01T16:42:50.146Z,6.50
2022-12-01T16:45:18.446Z,6.50
2022-12-01T16:47:47.807Z,6.40
2022-12-01T16:50:19.987Z,6.40
2022-12-01T16:52:47.536Z,6.40
2022-12-01T16:55:26.220Z,6.40
2022-12-01T16:57:53.618Z,6.40
2022-12-01T17:00:21.277Z,6.40
2022-12-01T17:02:48.518Z,6.40
2022-12-01T17:05:15.666Z,6.40
2022-12-01T17:07:42.814Z,6.60
2022-12-01T17:10:10.737Z,6.60
2022-12-01T17:12:37.739Z,6.60
2022-12-01T17:15:05.701Z,6.50
2022-12-01T17:17:32.951Z,6.40
2022-12-01T17:19:59.930Z,6.40
2022-12-01T17:22:27.078Z,6.30
2022-12-01T17:24:55.559Z,6.30
2022-12-01T17:27:23.531Z,6.30
2022-12-01T17:29:50.645Z,6.30
2022-12-01T17:32:17.696Z,6.20
2022-12-01T17:34:44.657Z,6.30
2022-12-01T17:37:16.094Z,6.20
2022-12-01T17:39:46.475Z,6.30
2022-12-01T17:42:13.418Z,6.30
2022-12-01T17:44:40.595Z,6.40
2022-12-01T17:47:07.593Z,6.40
2022-12-01T17:49:36.661Z,6.30
2022-12-01T17:52:07.988Z,6.30
2022-12-01T17:54:35.086Z,6.20
2022-12-01T17:57:02.135Z,6.20
2022-12-01T17:59:29.109Z,6.40
2022-12-01T18:01:56.227Z,6.50
2022-12-01T18:04:23.210Z,6.60
2022-12-01T18:06:53.990Z,6.70
2022-12-01T18:09:22.141Z,6.50
2022-12-01T18:11:49.811Z,6.50
2022-12-01T18:14:17.923Z,6.60
2022-12-01T18:16:45.542Z,6.60
2022-12-01T18:19:13.200Z,6.50
2022-12-01T18:21:40.828Z,6.50
2022-12-01T18:24:11.020Z,6.40
2022-12-01T18:26:40.045Z,6.30
2022-12-01T18:29:12.042Z,6.20
2022-12-01T18:31:40.017Z,6.30
2022-12-01T18:34:08.080Z,6.50
2022-12-01T18:36:37.237Z,6.60
2022-12-01T18:39:06.950Z,6.50
2022-12-01T18:41:35.063Z,6.40
2022-12-01T18:44:03.042Z,6.30
2022-12-01T18:46:30.652Z,6.20
2022-12-01T18:49:02.036Z,6.30
2022-12-01T18:51:30.686Z,6.30
2022-12-01T18:53:59.661Z,6.40
2022-12-01T18:56:27.902Z,6.40
2022-12-01T18:58:56.763Z,6.40
2022-12-01T19:01:26.749Z,6.30
2022-12-01T19:03:58.309Z,6.40
2022-12-01T19:06:26.446Z,6.30
2022-12-01T19:08:53.829Z,6.30
2022-12-01T19:11:21.514Z,6.40
2022-12-01T19:13:49.174Z,6.30
2022-12-01T19:16:19.973Z,6.50
2022-12-01T19:18:47.442Z,6.60
2022-12-01T19:21:18.388Z,6.60
2022-12-01T19:23:46.884Z,6.60
2022-12-01T19:26:16.715Z,6.60
2022-12-01T19:28:45.767Z,6.60
2022-12-01T19:31:19.248Z,6.60
2022-12-01T19:33:47.430Z,6.50
2022-12-01T19:36:17.810Z,6.40
2022-12-01T19:38:45.862Z,6.30
2022-12-01T19:41:14.102Z,6.20
2022-12-01T19:43:42.721Z,6.20
2022-12-01T19:46:13.398Z,6.20
2022-12-01T19:48:41.148Z,6.20
2022-12-01T19:51:16.548Z,6.20
2022-12-01T19:53:43.735Z,6.30
2022-12-01T19:56:11.469Z,6.40
2022-12-01T19:58:38.646Z,6.30
2022-12-01T20:01:11.790Z,6.40
2022-12-01T20:03:40.616Z,6.50
2022-12-01T20:06:28.821Z,6.40
2022-12-01T20:08:58.083Z,6.40
2022-12-01T20:11:25.819Z,6.30
2022-12-01T20:13:53.341Z,6.20
2022-12-01T20:16:22.996Z,6.20
2022-12-01T20:18:51.328Z,6.10
2022-12-01T20:21:24.230Z,6.10
2022-12-01T20:23:59.829Z,6.20
2022-12-01T20:26:33.802Z,6.20
2022-12-01T20:29:25.595Z,6.20
2022-12-01T20:31:54.065Z,6.40
2022-12-01T20:34:25.619Z,6.50
2022-12-01T20:36:53.437Z,6.60
2022-12-01T20:39:21.272Z,6.60
2022-12-01T20:41:49.287Z,6.60
2022-12-01T20:44:17.497Z,6.60
2022-12-01T20:46:48.405Z,6.40
2022-12-01T20:49:17.491Z,6.50
2022-12-01T20:51:45.368Z,6.40
2022-12-01T20:54:30.430Z,6.40
2022-12-01T20:56:58.444Z,6.30
2022-12-01T20:59:25.702Z,6.30
2022-12-01T21:01:52.897Z,6.40
2022-12-01T21:04:20.133Z,6.40
2022-12-01T21:06:47.351Z,6.50
2022-12-01T21:09:15.054Z,6.70
2022-12-01T21:12:08.948Z,6.80
2022-12-01T21:14:45.428Z,6.80
2022-12-01T21:17:46.822Z,6.70
2022-12-01T21:20:28.747Z,6.50
2022-12-01T21:23:08.903Z,6.60
2022-12-01T21:25:39.102Z,6.70
2022-12-01T21:28:27.088Z,6.80
2022-12-01T21:31:14.825Z,6.60
2022-12-01T21:33:42.693Z,6.50
2022-12-01T21:36:30.901Z,6.50
2022-12-01T21:39:11.044Z,6.60
2022-12-01T21:41:38.284Z,6.70
2022-12-01T21:44:16.573Z,6.70
2022-12-01T21:46:44.477Z,6.70
2022-12-01T21:49:20.215Z,6.80
2022-12-01T21:51:50.270Z,6.80
2022-12-01T21:54:20.725Z,6.60
2022-12-01T21:56:49.486Z,6.60
2022-12-01T21:59:20.402Z,6.60
2022-12-01T22:01:52.955Z,6.50
2022-12-01T22:04:22.583Z,6.40
2022-12-01T22:06:52.639Z,6.40
2022-12-01T22:09:25.395Z,6.20
2022-12-01T22:12:22.478Z,6.10
2022-12-01T22:14:50.867Z,6.10
2022-12-01T22:17:20.697Z,6.10
2022-12-01T22:19:58.140Z,6.00
2022-12-01T22:22:27.647Z,6.20
2022-12-01T22:25:00.190Z,6.20
2022-12-01T22:27:32.255Z,6.10
2022-12-01T22:30:00.807Z,6.00
2022-12-01T22:32:39.721Z,6.00
2022-12-01T22:35:32.460Z,6.10
2022-12-01T22:38:11.428Z,6.10
2022-12-01T22:40:42.914Z,6.10
2022-12-01T22:43:15.915Z,6.10
2022-12-01T22:45:45.022Z,6.20
2022-12-01T22:48:37.522Z,6.10
2022-12-01T22:51:13.908Z,6.20
2022-12-01T22:53:42.228Z,6.30
2022-12-01T22:56:31.049Z,6.40
2022-12-01T22:58:58.330Z,6.30
2022-12-01T23:01:25.340Z,6.50
2022-12-01T23:04:24.281Z,6.60
2022-12-01T23:06:53.012Z,6.50
2022-12-01T23:09:21.858Z,6.60
2022-12-01T23:11:55.141Z,6.60
2022-12-01T23:14:23.595Z,6.60
2022-12-01T23:16:56.562Z,6.50
2022-12-01T23:19:23.650Z,6.40
2022-12-01T23:21:52.884Z,6.50
2022-12-01T23:24:20.006Z,6.50
2022-12-01T23:26:47.379Z,6.50
2022-12-01T23:29:14.455Z,6.50
2022-12-01T23:31:41.526Z,6.40
2022-12-01T23:34:15.314Z,6.30
2022-12-01T23:36:43.856Z,6.20
2022-12-01T23:39:13.779Z,6.10
2022-12-01T23:41:46.934Z,6.10
2022-12-01T23:44:22.319Z,6.20
2022-12-01T23:46:52.107Z,6.30
2022-12-01T23:49:32.975Z,6.30
2022-12-01T23:52:02.230Z,6.20
2022-12-01T23:54:34.510Z,6.20
2022-12-01T23:57:16.862Z,6.30
2022-12-01T23:59:44.839Z,6.20
